sensor_id;sensor_type;location;lat;lon;timestamp;P1;P2;P0
83024;PMS5003;72958;53.326;-1.496;2024-02-21T00:01:16;13;12;
83024;PMS5003;72958;53.326;-1.496;2024-02-21T00:03:42;2;2;
83024;PMS5003;72958;53.326;-1.496;2024-02-21T00:06:12;7;7;
83024;PMS5003;72958;53.326;-1.496;2024-02-21T00:09:20;5;5;
83024;PMS5003;72958;53.326;-1.496;2024-02-21T00:11:59;8;8;
83024;PMS5003;72958;53.326;-1.496;2024-02-21T00:14:34;11;11;
83024;PMS5003;72958;53.326;-1.496;2024-02-21T00:17:47;10;9;
83024;PMS5003;72958;53.326;-1.496;2024-02-21T00:20:17;7;7;
83024;PMS5003;72958;53.326;-1.496;2024-02-21T00:22:44;14;10;
83024;PMS5003;72958;53.326;-1.496;2024-02-21T00:25:10;11;11;
83024;PMS5003;72958;53.326;-1.496;2024-02-21T00:27:44;4;4;
83024;PMS5003;72958;53.326;-1.496;2024-02-21T00:30:12;8;8;
83024;PMS5003;72958;53.326;-1.496;2024-02-21T00:32:37;11;9;
83024;PMS5003;72958;53.326;-1.496;2024-02-21T00:35:07;5;3;
83024;PMS5003;72958;53.326;-1.496;2024-02-21T00:37:39;9;9;
83024;PMS5003;72958;53.326;-1.496;2024-02-21T00:40:05;11;10;
83024;PMS5003;72958;53.326;-1.496;2024-02-21T00:42:33;7;7;
83024;PMS5003;72958;53.326;-1.496;2024-02-21T00:45:13;16;15;
83024;PMS5003;72958;53.326;-1.496;2024-02-21T00:47:45;7;7;
83024;PMS5003;72958;53.326;-1.496;2024-02-21T00:50:11;10;10;
83024;PMS5003;72958;53.326;-1.496;2024-02-21T00:52:37;12;9;
83024;PMS5003;72958;53.326;-1.496;2024-02-21T00:55:03;12;12;
83024;PMS5003;72958;53.326;-1.496;2024-02-21T00:57:37;5;5;
83024;PMS5003;72958;53.326;-1.496;2024-02-21T01:00:40;5;5;
83024;PMS5003;72958;53.326;-1.496;2024-02-21T01:03:05;7;7;
83024;PMS5003;72958;53.326;-1.496;2024-02-21T01:05:32;9;6;
83024;PMS5003;72958;53.326;-1.496;2024-02-21T01:08:01;5;5;
83024;PMS5003;72958;53.326;-1.496;2024-02-21T01:10:39;2;2;
83024;PMS5003;72958;53.326;-1.496;2024-02-21T01:13:07;12;6;
83024;PMS5003;72958;53.326;-1.496;2024-02-21T01:15:47;6;6;
83024;PMS5003;72958;53.326;-1.496;2024-02-21T01:18:21;5;5;
83024;PMS5003;72958;53.326;-1.496;2024-02-21T01:20:47;3;3;
83024;PMS5003;72958;53.326;-1.496;2024-02-21T01:23:17;2;2;
83024;PMS5003;72958;53.326;-1.496;2024-02-21T01:26:09;9;7;
83024;PMS5003;72958;53.326;-1.496;2024-02-21T01:28:37;12;9;
83024;PMS5003;72958;53.326;-1.496;2024-02-21T01:31:05;5;5;
83024;PMS5003;72958;53.326;-1.496;2024-02-21T01:33:35;9;5;
83024;PMS5003;72958;53.326;-1.496;2024-02-21T01:36:06;16;16;
83024;PMS5003;72958;53.326;-1.496;2024-02-21T01:38:36;9;9;
83024;PMS5003;72958;53.326;-1.496;2024-02-21T01:41:08;6;6;
83024;PMS5003;72958;53.326;-1.496;2024-02-21T01:43:36;5;5;
83024;PMS5003;72958;53.326;-1.496;2024-02-21T01:46:04;6;6;
83024;PMS5003;72958;53.326;-1.496;2024-02-21T01:48:37;10;10;
83024;PMS5003;72958;53.326;-1.496;2024-02-21T01:51:05;5;5;
83024;PMS5003;72958;53.326;-1.496;2024-02-21T01:53:43;9;8;
83024;PMS5003;72958;53.326;-1.496;2024-02-21T01:56:36;9;9;
83024;PMS5003;72958;53.326;-1.496;2024-02-21T01:59:33;12;10;
83024;PMS5003;72958;53.326;-1.496;2024-02-21T02:01:59;10;10;
83024;PMS5003;72958;53.326;-1.496;2024-02-21T02:04:32;14;13;
83024;PMS5003;72958;53.326;-1.496;2024-02-21T02:07:00;18;18;
83024;PMS5003;72958;53.326;-1.496;2024-02-21T02:09:35;17;16;
83024;PMS5003;72958;53.326;-1.496;2024-02-21T02:12:06;11;11;
83024;PMS5003;72958;53.326;-1.496;2024-02-21T02:17:27;16;13;
83024;PMS5003;72958;53.326;-1.496;2024-02-21T02:19:59;17;14;
83024;PMS5003;72958;53.326;-1.496;2024-02-21T02:22:38;11;11;
83024;PMS5003;72958;53.326;-1.496;2024-02-21T02:25:07;13;13;
83024;PMS5003;72958;53.326;-1.496;2024-02-21T02:27:46;16;16;
83024;PMS5003;72958;53.326;-1.496;2024-02-21T02:30:39;12;12;
83024;PMS5003;72958;53.326;-1.496;2024-02-21T02:33:05;4;4;
83024;PMS5003;72958;53.326;-1.496;2024-02-21T02:35:50;13;12;
83024;PMS5003;72958;53.326;-1.496;2024-02-21T02:38:20;14;14;
83024;PMS5003;72958;53.326;-1.496;2024-02-21T02:40:48;17;17;
83024;PMS5003;72958;53.326;-1.496;2024-02-21T02:43:21;11;11;
83024;PMS5003;72958;53.326;-1.496;2024-02-21T02:45:45;19;16;
83024;PMS5003;72958;53.326;-1.496;2024-02-21T02:48:13;11;5;
83024;PMS5003;72958;53.326;-1.496;2024-02-21T02:50:43;8;8;
83024;PMS5003;72958;53.326;-1.496;2024-02-21T02:53:13;10;10;
83024;PMS5003;72958;53.326;-1.496;2024-02-21T02:56:14;10;10;
83024;PMS5003;72958;53.326;-1.496;2024-02-21T02:58:47;12;12;
83024;PMS5003;72958;53.326;-1.496;2024-02-21T03:01:14;11;11;
83024;PMS5003;72958;53.326;-1.496;2024-02-21T03:03:41;13;9;
83024;PMS5003;72958;53.326;-1.496;2024-02-21T03:06:14;6;6;
83024;PMS5003;72958;53.326;-1.496;2024-02-21T03:08:38;17;16;
83024;PMS5003;72958;53.326;-1.496;2024-02-21T03:11:08;18;15;
83024;PMS5003;72958;53.326;-1.496;2024-02-21T03:13:35;11;11;
83024;PMS5003;72958;53.326;-1.496;2024-02-21T03:16:06;12;12;
83024;PMS5003;72958;53.326;-1.496;2024-02-21T03:18:48;14;14;
83024;PMS5003;72958;53.326;-1.496;2024-02-21T03:21:15;13;13;
83024;PMS5003;72958;53.326;-1.496;2024-02-21T03:23:41;9;9;
83024;PMS5003;72958;53.326;-1.496;2024-02-21T03:26:08;14;14;
83024;PMS5003;72958;53.326;-1.496;2024-02-21T03:28:46;12;12;
83024;PMS5003;72958;53.326;-1.496;2024-02-21T03:31:12;14;13;
83024;PMS5003;72958;53.326;-1.496;2024-02-21T03:33:39;13;13;
83024;PMS5003;72958;53.326;-1.496;2024-02-21T03:36:25;5;5;
83024;PMS5003;72958;53.326;-1.496;2024-02-21T03:38:50;6;6;
83024;PMS5003;72958;53.326;-1.496;2024-02-21T03:41:28;3;3;
83024;PMS5003;72958;53.326;-1.496;2024-02-21T03:44:40;9;9;
83024;PMS5003;72958;53.326;-1.496;2024-02-21T03:47:09;10;10;
83024;PMS5003;72958;53.326;-1.496;2024-02-21T03:49:40;10;10;
83024;PMS5003;72958;53.326;-1.496;2024-02-21T03:52:05;7;7;
83024;PMS5003;72958;53.326;-1.496;2024-02-21T03:54:34;8;8;
83024;PMS5003;72958;53.326;-1.496;2024-02-21T03:56:59;9;8;
83024;PMS5003;72958;53.326;-1.496;2024-02-21T03:59:37;13;13;
83024;PMS5003;72958;53.326;-1.496;2024-02-21T04:02:09;7;7;
83024;PMS5003;72958;53.326;-1.496;2024-02-21T04:04:36;13;13;
83024;PMS5003;72958;53.326;-1.496;2024-02-21T04:07:16;19;15;
83024;PMS5003;72958;53.326;-1.496;2024-02-21T04:09:42;8;8;
83024;PMS5003;72958;53.326;-1.496;2024-02-21T04:12:18;9;7;
83024;PMS5003;72958;53.326;-1.496;2024-02-21T04:14:55;13;11;
83024;PMS5003;72958;53.326;-1.496;2024-02-21T04:17:21;9;8;
83024;PMS5003;72958;53.326;-1.496;2024-02-21T04:19:47;10;10;
83024;PMS5003;72958;53.326;-1.496;2024-02-21T04:22:54;8;8;
83024;PMS5003;72958;53.326;-1.496;2024-02-21T04:25:20;7;7;
83024;PMS5003;72958;53.326;-1.496;2024-02-21T04:27:45;7;7;
83024;PMS5003;72958;53.326;-1.496;2024-02-21T04:30:11;5;5;
83024;PMS5003;72958;53.326;-1.496;2024-02-21T04:32:38;8;8;
83024;PMS5003;72958;53.326;-1.496;2024-02-21T04:35:06;4;4;
83024;PMS5003;72958;53.326;-1.496;2024-02-21T04:37:45;0;0;
83024;PMS5003;72958;53.326;-1.496;2024-02-21T04:40:13;4;4;
83024;PMS5003;72958;53.326;-1.496;2024-02-21T04:42:38;4;3;
83024;PMS5003;72958;53.326;-1.496;2024-02-21T04:45:08;2;2;
83024;PMS5003;72958;53.326;-1.496;2024-02-21T04:47:49;2;2;
83024;PMS5003;72958;53.326;-1.496;2024-02-21T04:51:06;2;2;
83024;PMS5003;72958;53.326;-1.496;2024-02-21T04:53:33;2;2;
83024;PMS5003;72958;53.326;-1.496;2024-02-21T04:56:17;0;0;
83024;PMS5003;72958;53.326;-1.496;2024-02-21T04:58:47;1;1;
83024;PMS5003;72958;53.326;-1.496;2024-02-21T05:01:28;1;1;
83024;PMS5003;72958;53.326;-1.496;2024-02-21T05:04:38;1;1;
83024;PMS5003;72958;53.326;-1.496;2024-02-21T05:07:07;0;0;
83024;PMS5003;72958;53.326;-1.496;2024-02-21T05:09:49;1;1;
83024;PMS5003;72958;53.326;-1.496;2024-02-21T05:12:16;0;0;
83024;PMS5003;72958;53.326;-1.496;2024-02-21T05:14:58;0;0;
83024;PMS5003;72958;53.326;-1.496;2024-02-21T05:17:52;0;0;
83024;PMS5003;72958;53.326;-1.496;2024-02-21T05:20:19;1;1;
83024;PMS5003;72958;53.326;-1.496;2024-02-21T05:23:01;0;0;
83024;PMS5003;72958;53.326;-1.496;2024-02-21T05:25:52;0;0;
83024;PMS5003;72958;53.326;-1.496;2024-02-21T05:28:19;0;0;
83024;PMS5003;72958;53.326;-1.496;2024-02-21T05:31:15;0;0;
83024;PMS5003;72958;53.326;-1.496;2024-02-21T05:33:40;0;0;
83024;PMS5003;72958;53.326;-1.496;2024-02-21T05:36:14;0;0;
83024;PMS5003;72958;53.326;-1.496;2024-02-21T05:38:54;0;0;
83024;PMS5003;72958;53.326;-1.496;2024-02-21T05:41:29;0;0;
83024;PMS5003;72958;53.326;-1.496;2024-02-21T05:43:54;0;0;
83024;PMS5003;72958;53.326;-1.496;2024-02-21T05:46:32;0;0;
83024;PMS5003;72958;53.326;-1.496;2024-02-21T05:49:39;0;0;
83024;PMS5003;72958;53.326;-1.496;2024-02-21T05:52:05;0;0;
83024;PMS5003;72958;53.326;-1.496;2024-02-21T05:54:34;0;0;
83024;PMS5003;72958;53.326;-1.496;2024-02-21T05:57:27;0;0;
83024;PMS5003;72958;53.326;-1.496;2024-02-21T05:59:46;0;0;
83024;PMS5003;72958;53.326;-1.496;2024-02-21T06:02:54;0;0;
83024;PMS5003;72958;53.326;-1.496;2024-02-21T06:05:36;0;0;
83024;PMS5003;72958;53.326;-1.496;2024-02-21T06:08:45;0;0;
83024;PMS5003;72958;53.326;-1.496;2024-02-21T06:11:12;0;0;
83024;PMS5003;72958;53.326;-1.496;2024-02-21T06:13:57;0;0;
83024;PMS5003;72958;53.326;-1.496;2024-02-21T06:16:32;0;0;
83024;PMS5003;72958;53.326;-1.496;2024-02-21T06:18:59;0;0;
83024;PMS5003;72958;53.326;-1.496;2024-02-21T06:21:29;0;0;
83024;PMS5003;72958;53.326;-1.496;2024-02-21T06:24:49;0;0;
83024;PMS5003;72958;53.326;-1.496;2024-02-21T06:27:29;0;0;
83024;PMS5003;72958;53.326;-1.496;2024-02-21T06:30:11;0;0;
83024;PMS5003;72958;53.326;-1.496;2024-02-21T06:32:37;0;0;
83024;PMS5003;72958;53.326;-1.496;2024-02-21T06:35:08;0;0;
83024;PMS5003;72958;53.326;-1.496;2024-02-21T06:37:52;0;0;
83024;PMS5003;72958;53.326;-1.496;2024-02-21T06:40:23;0;0;
83024;PMS5003;72958;53.326;-1.496;2024-02-21T06:42:58;1;1;
83024;PMS5003;72958;53.326;-1.496;2024-02-21T06:45:28;1;1;
83024;PMS5003;72958;53.326;-1.496;2024-02-21T06:47:51;0;0;
83024;PMS5003;72958;53.326;-1.496;2024-02-21T06:50:43;0;0;
83024;PMS5003;72958;53.326;-1.496;2024-02-21T06:53:37;0;0;
83024;PMS5003;72958;53.326;-1.496;2024-02-21T06:56:43;1;1;
83024;PMS5003;72958;53.326;-1.496;2024-02-21T06:59:39;0;0;
83024;PMS5003;72958;53.326;-1.496;2024-02-21T07:02:11;2;2;
83024;PMS5003;72958;53.326;-1.496;2024-02-21T07:04:45;0;0;
83024;PMS5003;72958;53.326;-1.496;2024-02-21T07:07:11;1;1;
83024;PMS5003;72958;53.326;-1.496;2024-02-21T07:09:38;2;2;
83024;PMS5003;72958;53.326;-1.496;2024-02-21T07:12:06;0;0;
83024;PMS5003;72958;53.326;-1.496;2024-02-21T07:14:36;0;0;
83024;PMS5003;72958;53.326;-1.496;2024-02-21T07:17:13;1;0;
83024;PMS5003;72958;53.326;-1.496;2024-02-21T07:19:52;0;0;
83024;PMS5003;72958;53.326;-1.496;2024-02-21T07:22:48;3;0;
83024;PMS5003;72958;53.326;-1.496;2024-02-21T07:25:15;2;2;
83024;PMS5003;72958;53.326;-1.496;2024-02-21T07:27:55;2;2;
83024;PMS5003;72958;53.326;-1.496;2024-02-21T07:30:20;1;1;
83024;PMS5003;72958;53.326;-1.496;2024-02-21T07:32:52;2;1;
83024;PMS5003;72958;53.326;-1.496;2024-02-21T07:35:26;1;1;
83024;PMS5003;72958;53.326;-1.496;2024-02-21T07:38:04;3;3;
83024;PMS5003;72958;53.326;-1.496;2024-02-21T07:40:36;1;1;
83024;PMS5003;72958;53.326;-1.496;2024-02-21T07:43:02;1;1;
83024;PMS5003;72958;53.326;-1.496;2024-02-21T07:45:36;2;2;
83024;PMS5003;72958;53.326;-1.496;2024-02-21T07:48:06;0;0;
83024;PMS5003;72958;53.326;-1.496;2024-02-21T07:50:34;1;1;
83024;PMS5003;72958;53.326;-1.496;2024-02-21T07:53:00;1;1;
83024;PMS5003;72958;53.326;-1.496;2024-02-21T07:55:24;1;1;
83024;PMS5003;72958;53.326;-1.496;2024-02-21T07:58:34;1;1;
83024;PMS5003;72958;53.326;-1.496;2024-02-21T08:01:56;3;3;
83024;PMS5003;72958;53.326;-1.496;2024-02-21T08:04:28;2;2;
83024;PMS5003;72958;53.326;-1.496;2024-02-21T08:07:04;0;0;
83024;PMS5003;72958;53.326;-1.496;2024-02-21T08:09:55;1;1;
83024;PMS5003;72958;53.326;-1.496;2024-02-21T08:12:36;2;2;
83024;PMS5003;72958;53.326;-1.496;2024-02-21T08:15:06;1;0;
83024;PMS5003;72958;53.326;-1.496;2024-02-21T08:17:37;0;0;
83024;PMS5003;72958;53.326;-1.496;2024-02-21T08:20:04;1;1;
83024;PMS5003;72958;53.326;-1.496;2024-02-21T08:22:41;3;0;
83024;PMS5003;72958;53.326;-1.496;2024-02-21T08:25:10;0;0;
83024;PMS5003;72958;53.326;-1.496;2024-02-21T08:27:38;1;1;
83024;PMS5003;72958;53.326;-1.496;2024-02-21T08:30:09;0;0;
83024;PMS5003;72958;53.326;-1.496;2024-02-21T08:32:40;0;0;
83024;PMS5003;72958;53.326;-1.496;2024-02-21T08:35:07;0;0;
83024;PMS5003;72958;53.326;-1.496;2024-02-21T08:38:20;1;1;
83024;PMS5003;72958;53.326;-1.496;2024-02-21T08:40:52;0;0;
83024;PMS5003;72958;53.326;-1.496;2024-02-21T08:43:24;0;0;
83024;PMS5003;72958;53.326;-1.496;2024-02-21T08:45:55;0;0;
83024;PMS5003;72958;53.326;-1.496;2024-02-21T08:48:43;0;0;
83024;PMS5003;72958;53.326;-1.496;2024-02-21T08:51:13;0;0;
83024;PMS5003;72958;53.326;-1.496;2024-02-21T08:53:43;0;0;
83024;PMS5003;72958;53.326;-1.496;2024-02-21T08:56:14;0;0;
83024;PMS5003;72958;53.326;-1.496;2024-02-21T08:58:43;0;0;
83024;PMS5003;72958;53.326;-1.496;2024-02-21T09:01:13;0;0;
83024;PMS5003;72958;53.326;-1.496;2024-02-21T09:03:49;0;0;
83024;PMS5003;72958;53.326;-1.496;2024-02-21T09:06:26;0;0;
83024;PMS5003;72958;53.326;-1.496;2024-02-21T09:09:13;0;0;
83024;PMS5003;72958;53.326;-1.496;2024-02-21T09:11:40;0;0;
83024;PMS5003;72958;53.326;-1.496;2024-02-21T09:14:05;2;2;
83024;PMS5003;72958;53.326;-1.496;2024-02-21T09:16:31;0;0;
83024;PMS5003;72958;53.326;-1.496;2024-02-21T09:18:59;0;0;
83024;PMS5003;72958;53.326;-1.496;2024-02-21T09:21:41;0;0;
83024;PMS5003;72958;53.326;-1.496;2024-02-21T09:24:06;0;0;
83024;PMS5003;72958;53.326;-1.496;2024-02-21T09:26:55;0;0;
83024;PMS5003;72958;53.326;-1.496;2024-02-21T09:29:25;0;0;
83024;PMS5003;72958;53.326;-1.496;2024-02-21T09:31:58;2;0;
83024;PMS5003;72958;53.326;-1.496;2024-02-21T09:34:30;0;0;
83024;PMS5003;72958;53.326;-1.496;2024-02-21T09:37:36;2;0;
83024;PMS5003;72958;53.326;-1.496;2024-02-21T09:40:05;0;0;
83024;PMS5003;72958;53.326;-1.496;2024-02-21T09:42:32;0;0;
83024;PMS5003;72958;53.326;-1.496;2024-02-21T09:45:08;0;0;
83024;PMS5003;72958;53.326;-1.496;2024-02-21T09:48:02;0;0;
83024;PMS5003;72958;53.326;-1.496;2024-02-21T09:50:23;0;0;
83024;PMS5003;72958;53.326;-1.496;2024-02-21T09:52:49;0;0;
83024;PMS5003;72958;53.326;-1.496;2024-02-21T09:55:18;0;0;
83024;PMS5003;72958;53.326;-1.496;2024-02-21T09:57:45;0;0;
83024;PMS5003;72958;53.326;-1.496;2024-02-21T10:00:19;0;0;
83024;PMS5003;72958;53.326;-1.496;2024-02-21T10:02:50;0;0;
83024;PMS5003;72958;53.326;-1.496;2024-02-21T10:05:17;0;0;
83024;PMS5003;72958;53.326;-1.496;2024-02-21T10:07:51;0;0;
83024;PMS5003;72958;53.326;-1.496;2024-02-21T10:10:17;0;0;
83024;PMS5003;72958;53.326;-1.496;2024-02-21T10:13:01;0;0;
83024;PMS5003;72958;53.326;-1.496;2024-02-21T10:15:42;0;0;
83024;PMS5003;72958;53.326;-1.496;2024-02-21T10:18:08;0;0;
83024;PMS5003;72958;53.326;-1.496;2024-02-21T10:23:42;0;0;
83024;PMS5003;72958;53.326;-1.496;2024-02-21T10:26:07;1;0;
83024;PMS5003;72958;53.326;-1.496;2024-02-21T10:28:47;0;0;
83024;PMS5003;72958;53.326;-1.496;2024-02-21T10:31:26;0;0;
83024;PMS5003;72958;53.326;-1.496;2024-02-21T10:34:08;0;0;
83024;PMS5003;72958;53.326;-1.496;2024-02-21T10:36:38;0;0;
83024;PMS5003;72958;53.326;-1.496;2024-02-21T10:39:14;0;0;
83024;PMS5003;72958;53.326;-1.496;2024-02-21T10:41:54;0;0;
83024;PMS5003;72958;53.326;-1.496;2024-02-21T10:44:21;0;0;
83024;PMS5003;72958;53.326;-1.496;2024-02-21T10:47:10;0;0;
83024;PMS5003;72958;53.326;-1.496;2024-02-21T10:49:35;0;0;
83024;PMS5003;72958;53.326;-1.496;2024-02-21T10:52:01;0;0;
83024;PMS5003;72958;53.326;-1.496;2024-02-21T10:54:43;0;0;
83024;PMS5003;72958;53.326;-1.496;2024-02-21T10:57:07;0;0;
83024;PMS5003;72958;53.326;-1.496;2024-02-21T11:00:24;1;0;
83024;PMS5003;72958;53.326;-1.496;2024-02-21T11:03:10;0;0;
83024;PMS5003;72958;53.326;-1.496;2024-02-21T11:05:36;0;0;
83024;PMS5003;72958;53.326;-1.496;2024-02-21T11:08:28;0;0;
83024;PMS5003;72958;53.326;-1.496;2024-02-21T11:10:57;0;0;
83024;PMS5003;72958;53.326;-1.496;2024-02-21T11:13:31;0;0;
83024;PMS5003;72958;53.326;-1.496;2024-02-21T11:16:06;0;0;
83024;PMS5003;72958;53.326;-1.496;2024-02-21T11:18:31;0;0;
83024;PMS5003;72958;53.326;-1.496;2024-02-21T11:21:17;0;0;
83024;PMS5003;72958;53.326;-1.496;2024-02-21T11:23:55;0;0;
83024;PMS5003;72958;53.326;-1.496;2024-02-21T11:26:27;0;0;
83024;PMS5003;72958;53.326;-1.496;2024-02-21T11:32:14;0;0;
83024;PMS5003;72958;53.326;-1.496;2024-02-21T11:34:42;0;0;
83024;PMS5003;72958;53.326;-1.496;2024-02-21T11:37:13;0;0;
83024;PMS5003;72958;53.326;-1.496;2024-02-21T11:39:37;0;0;
83024;PMS5003;72958;53.326;-1.496;2024-02-21T11:43:01;1;1;
83024;PMS5003;72958;53.326;-1.496;2024-02-21T11:45:42;1;1;
83024;PMS5003;72958;53.326;-1.496;2024-02-21T11:48:09;0;0;
83024;PMS5003;72958;53.326;-1.496;2024-02-21T11:50:41;0;0;
83024;PMS5003;72958;53.326;-1.496;2024-02-21T11:53:08;1;1;
83024;PMS5003;72958;53.326;-1.496;2024-02-21T11:56:01;2;2;
83024;PMS5003;72958;53.326;-1.496;2024-02-21T11:58:43;0;0;
83024;PMS5003;72958;53.326;-1.496;2024-02-21T12:01:09;0;0;
83024;PMS5003;72958;53.326;-1.496;2024-02-21T12:03:38;1;1;
83024;PMS5003;72958;53.326;-1.496;2024-02-21T12:06:08;0;0;
83024;PMS5003;72958;53.326;-1.496;2024-02-21T12:08:40;0;0;
83024;PMS5003;72958;53.326;-1.496;2024-02-21T12:11:18;1;1;
83024;PMS5003;72958;53.326;-1.496;2024-02-21T12:16:15;0;0;
83024;PMS5003;72958;53.326;-1.496;2024-02-21T12:18:47;0;0;
83024;PMS5003;72958;53.326;-1.496;2024-02-21T12:21:13;0;0;
83024;PMS5003;72958;53.326;-1.496;2024-02-21T12:23:40;0;0;
83024;PMS5003;72958;53.326;-1.496;2024-02-21T12:26:08;0;0;
83024;PMS5003;72958;53.326;-1.496;2024-02-21T12:28:46;0;0;
83024;PMS5003;72958;53.326;-1.496;2024-02-21T12:31:17;0;0;
83024;PMS5003;72958;53.326;-1.496;2024-02-21T12:33:57;0;0;
83024;PMS5003;72958;53.326;-1.496;2024-02-21T12:36:24;0;0;
83024;PMS5003;72958;53.326;-1.496;2024-02-21T12:38:57;0;0;
83024;PMS5003;72958;53.326;-1.496;2024-02-21T12:41:24;0;0;
83024;PMS5003;72958;53.326;-1.496;2024-02-21T12:43:49;0;0;
83024;PMS5003;72958;53.326;-1.496;2024-02-21T12:46:32;0;0;
83024;PMS5003;72958;53.326;-1.496;2024-02-21T12:49:01;0;0;
83024;PMS5003;72958;53.326;-1.496;2024-02-21T12:51:41;0;0;
83024;PMS5003;72958;53.326;-1.496;2024-02-21T12:54:08;0;0;
83024;PMS5003;72958;53.326;-1.496;2024-02-21T12:56:57;0;0;
83024;PMS5003;72958;53.326;-1.496;2024-02-21T12:59:27;0;0;
83024;PMS5003;72958;53.326;-1.496;2024-02-21T13:01:54;0;0;
83024;PMS5003;72958;53.326;-1.496;2024-02-21T13:04:20;0;0;
83024;PMS5003;72958;53.326;-1.496;2024-02-21T13:06:45;1;1;
83024;PMS5003;72958;53.326;-1.496;2024-02-21T13:09:13;0;0;
83024;PMS5003;72958;53.326;-1.496;2024-02-21T13:11:42;0;0;
83024;PMS5003;72958;53.326;-1.496;2024-02-21T13:14:08;0;0;
83024;PMS5003;72958;53.326;-1.496;2024-02-21T13:16:53;0;0;
83024;PMS5003;72958;53.326;-1.496;2024-02-21T13:19:22;0;0;
83024;PMS5003;72958;53.326;-1.496;2024-02-21T13:22:05;0;0;
83024;PMS5003;72958;53.326;-1.496;2024-02-21T13:24:46;1;1;
83024;PMS5003;72958;53.326;-1.496;2024-02-21T13:27:26;0;0;
83024;PMS5003;72958;53.326;-1.496;2024-02-21T13:30:39;0;0;
83024;PMS5003;72958;53.326;-1.496;2024-02-21T13:33:05;0;0;
83024;PMS5003;72958;53.326;-1.496;2024-02-21T13:35:43;0;0;
83024;PMS5003;72958;53.326;-1.496;2024-02-21T13:38:39;0;0;
83024;PMS5003;72958;53.326;-1.496;2024-02-21T13:41:21;0;0;
83024;PMS5003;72958;53.326;-1.496;2024-02-21T13:43:51;0;0;
83024;PMS5003;72958;53.326;-1.496;2024-02-21T13:46:20;0;0;
83024;PMS5003;72958;53.326;-1.496;2024-02-21T13:49:05;0;0;
83024;PMS5003;72958;53.326;-1.496;2024-02-21T13:51:29;0;0;
83024;PMS5003;72958;53.326;-1.496;2024-02-21T13:54:08;0;0;
83024;PMS5003;72958;53.326;-1.496;2024-02-21T13:57:00;0;0;
83024;PMS5003;72958;53.326;-1.496;2024-02-21T13:59:25;0;0;
83024;PMS5003;72958;53.326;-1.496;2024-02-21T14:02:20;0;0;
83024;PMS5003;72958;53.326;-1.496;2024-02-21T14:05:30;0;0;
83024;PMS5003;72958;53.326;-1.496;2024-02-21T14:08:14;0;0;
83024;PMS5003;72958;53.326;-1.496;2024-02-21T14:11:16;0;0;
83024;PMS5003;72958;53.326;-1.496;2024-02-21T14:13:46;0;0;
83024;PMS5003;72958;53.326;-1.496;2024-02-21T14:16:16;0;0;
83024;PMS5003;72958;53.326;-1.496;2024-02-21T14:18:53;0;0;
83024;PMS5003;72958;53.326;-1.496;2024-02-21T14:21:21;0;0;
83024;PMS5003;72958;53.326;-1.496;2024-02-21T14:23:48;0;0;
83024;PMS5003;72958;53.326;-1.496;2024-02-21T14:26:28;0;0;
83024;PMS5003;72958;53.326;-1.496;2024-02-21T14:29:01;0;0;
83024;PMS5003;72958;53.326;-1.496;2024-02-21T14:31:27;0;0;
83024;PMS5003;72958;53.326;-1.496;2024-02-21T14:33:59;0;0;
83024;PMS5003;72958;53.326;-1.496;2024-02-21T14:36:31;0;0;
83024;PMS5003;72958;53.326;-1.496;2024-02-21T14:39:20;0;0;
83024;PMS5003;72958;53.326;-1.496;2024-02-21T14:41:46;0;0;
83024;PMS5003;72958;53.326;-1.496;2024-02-21T14:44:19;0;0;
83024;PMS5003;72958;53.326;-1.496;2024-02-21T14:47:04;0;0;
83024;PMS5003;72958;53.326;-1.496;2024-02-21T14:49:39;0;0;
83024;PMS5003;72958;53.326;-1.496;2024-02-21T14:52:05;0;0;
83024;PMS5003;72958;53.326;-1.496;2024-02-21T14:54:35;0;0;
83024;PMS5003;72958;53.326;-1.496;2024-02-21T14:57:31;0;0;
83024;PMS5003;72958;53.326;-1.496;2024-02-21T14:59:57;1;1;
83024;PMS5003;72958;53.326;-1.496;2024-02-21T15:02:23;0;0;
83024;PMS5003;72958;53.326;-1.496;2024-02-21T15:04:53;1;1;
83024;PMS5003;72958;53.326;-1.496;2024-02-21T15:07:38;0;0;
83024;PMS5003;72958;53.326;-1.496;2024-02-21T15:10:04;0;0;
83024;PMS5003;72958;53.326;-1.496;2024-02-21T15:12:31;0;0;
83024;PMS5003;72958;53.326;-1.496;2024-02-21T15:14:58;0;0;
83024;PMS5003;72958;53.326;-1.496;2024-02-21T15:17:36;0;0;
83024;PMS5003;72958;53.326;-1.496;2024-02-21T15:20:26;1;1;
83024;PMS5003;72958;53.326;-1.496;2024-02-21T15:23:11;0;0;
83024;PMS5003;72958;53.326;-1.496;2024-02-21T15:25:41;0;0;
83024;PMS5003;72958;53.326;-1.496;2024-02-21T15:28:08;0;0;
83024;PMS5003;72958;53.326;-1.496;2024-02-21T15:30:41;1;1;
83024;PMS5003;72958;53.326;-1.496;2024-02-21T15:33:11;0;0;
83024;PMS5003;72958;53.326;-1.496;2024-02-21T15:36:13;0;0;
83024;PMS5003;72958;53.326;-1.496;2024-02-21T15:38:47;0;0;
83024;PMS5003;72958;53.326;-1.496;2024-02-21T15:41:41;0;0;
83024;PMS5003;72958;53.326;-1.496;2024-02-21T15:44:13;1;1;
83024;PMS5003;72958;53.326;-1.496;2024-02-21T15:46:39;0;0;
83024;PMS5003;72958;53.326;-1.496;2024-02-21T15:49:06;1;1;
83024;PMS5003;72958;53.326;-1.496;2024-02-21T15:51:56;0;0;
83024;PMS5003;72958;53.326;-1.496;2024-02-21T15:54:25;1;1;
83024;PMS5003;72958;53.326;-1.496;2024-02-21T15:56:50;1;1;
83024;PMS5003;72958;53.326;-1.496;2024-02-21T15:59:26;4;4;
83024;PMS5003;72958;53.326;-1.496;2024-02-21T16:01:58;3;3;
83024;PMS5003;72958;53.326;-1.496;2024-02-21T16:04:30;2;2;
83024;PMS5003;72958;53.326;-1.496;2024-02-21T16:07:00;2;2;
83024;PMS5003;72958;53.326;-1.496;2024-02-21T16:10:48;1;1;
83024;PMS5003;72958;53.326;-1.496;2024-02-21T16:13:16;0;0;
83024;PMS5003;72958;53.326;-1.496;2024-02-21T16:15:59;4;4;
83024;PMS5003;72958;53.326;-1.496;2024-02-21T16:18:26;0;0;
83024;PMS5003;72958;53.326;-1.496;2024-02-21T16:20:51;1;1;
83024;PMS5003;72958;53.326;-1.496;2024-02-21T16:23:32;0;0;
83024;PMS5003;72958;53.326;-1.496;2024-02-21T16:26:15;1;1;
83024;PMS5003;72958;53.326;-1.496;2024-02-21T16:28:44;0;0;
83024;PMS5003;72958;53.326;-1.496;2024-02-21T16:31:27;1;1;
83024;PMS5003;72958;53.326;-1.496;2024-02-21T16:33:54;2;2;
83024;PMS5003;72958;53.326;-1.496;2024-02-21T16:36:54;1;1;
83024;PMS5003;72958;53.326;-1.496;2024-02-21T16:39:24;2;2;
83024;PMS5003;72958;53.326;-1.496;2024-02-21T16:41:51;0;0;
83024;PMS5003;72958;53.326;-1.496;2024-02-21T16:44:23;1;1;
83024;PMS5003;72958;53.326;-1.496;2024-02-21T16:46:50;1;1;
83024;PMS5003;72958;53.326;-1.496;2024-02-21T16:49:15;0;0;
83024;PMS5003;72958;53.326;-1.496;2024-02-21T16:51:45;0;0;
83024;PMS5003;72958;53.326;-1.496;2024-02-21T16:54:15;0;0;
83024;PMS5003;72958;53.326;-1.496;2024-02-21T16:56:42;0;0;
83024;PMS5003;72958;53.326;-1.496;2024-02-21T16:59:18;0;0;
83024;PMS5003;72958;53.326;-1.496;2024-02-21T17:01:54;0;0;
83024;PMS5003;72958;53.326;-1.496;2024-02-21T17:04:44;0;0;
83024;PMS5003;72958;53.326;-1.496;2024-02-21T17:07:11;0;0;
83024;PMS5003;72958;53.326;-1.496;2024-02-21T17:09:40;0;0;
83024;PMS5003;72958;53.326;-1.496;2024-02-21T17:12:56;0;0;
83024;PMS5003;72958;53.326;-1.496;2024-02-21T17:15:37;0;0;
83024;PMS5003;72958;53.326;-1.496;2024-02-21T17:18:16;0;0;
83024;PMS5003;72958;53.326;-1.496;2024-02-21T17:20:48;0;0;
83024;PMS5003;72958;53.326;-1.496;2024-02-21T17:23:43;1;0;
83024;PMS5003;72958;53.326;-1.496;2024-02-21T17:26:26;0;0;
83024;PMS5003;72958;53.326;-1.496;2024-02-21T17:28:52;0;0;
83024;PMS5003;72958;53.326;-1.496;2024-02-21T17:31:19;1;0;
83024;PMS5003;72958;53.326;-1.496;2024-02-21T17:33:45;0;0;
83024;PMS5003;72958;53.326;-1.496;2024-02-21T17:36:26;0;0;
83024;PMS5003;72958;53.326;-1.496;2024-02-21T17:39:16;0;0;